シンガポール/チャンギ の空港の天気 - METARとTAF

シンガポール・チャンギ国際空港 ( WSSS / SIN ) - シンガポール Changi
飛行場実況気象(Metar)
観測時間06/18 15:30 SGT (06/18 07:30 UTC)
風向・風速不定 1m/s
視程10km以上
天気現象
少しの雲 雲底高度 550m
全天の4割程度の雲 雲底高度 4880m
全天の8割程度の雲 雲底高度 8230m
気温29℃
湿度79%
気圧1009hPa
METARWSSS 180730Z VRB01KT 9999 FEW018 SCT160 BKN270 29/25 Q1009 NOSIG
過去の天気等 Google飛行場航空写真 Wunderground天気予報

過去48時間のMETAR

飛行場予報(TAF)
発表時間: 6/18 13:00 SGT (6/18 05:00 UTC)
予報対象時間: 18日14時 SGT ~ 19日20時 SGT
風向・風速南 5m/s
視程10km以上
少しの積乱雲 雲底高度 550m
全天の4割程度の雲 雲底高度 610m
19日6時 SGT ~ 19日11時 SGT に一時的に
風向・風速南南西 5m/s 瞬間風速 13m/s
視程3000m
天気現象雷雨
少しの積乱雲 雲底高度 370m
全天の8割程度の雲 雲底高度 460m
TAF WSSS 180500Z 1806/1912 18010KT 9999 FEW018CB SCT020
TEMPO 1822/1903 20010G25KT 3000 TSRA FEW012CB BKN015